createdAt,value
2022-07-29T00:00:21.865Z,99666.19
2022-07-29T00:00:54.129Z,99671.38
2022-07-29T00:01:26.041Z,99668.56
2022-07-29T00:01:58.050Z,99666.63
2022-07-29T00:02:30.439Z,99666.00
2022-07-29T00:03:03.935Z,99664.38
2022-07-29T00:03:35.910Z,99663.69
2022-07-29T00:04:13.459Z,99672.19
2022-07-29T00:04:45.788Z,99673.81
2022-07-29T00:05:17.929Z,99670.56
2022-07-29T00:05:49.837Z,99668.91
2022-07-29T00:06:22.080Z,99667.09
2022-07-29T00:06:53.974Z,99673.25
2022-07-29T00:07:26.172Z,99670.84
2022-07-29T00:07:58.159Z,99664.72
2022-07-29T00:08:30.102Z,99667.16
2022-07-29T00:09:02.019Z,99667.53
2022-07-29T00:09:34.105Z,99662.69
2022-07-29T00:10:23.526Z,99668.13
2022-07-29T00:10:55.489Z,99664.75
2022-07-29T00:11:27.703Z,99666.34
2022-07-29T00:12:02.034Z,99656.41
2022-07-29T00:12:34.000Z,99664.91
2022-07-29T00:13:06.609Z,99656.28
2022-07-29T00:13:38.739Z,99669.06
2022-07-29T00:14:10.954Z,99663.50
2022-07-29T00:14:42.953Z,99654.72
2022-07-29T00:15:16.309Z,99658.00
2022-07-29T00:15:48.275Z,99659.28
2022-07-29T00:16:20.258Z,99657.50
2022-07-29T00:16:52.622Z,99659.03
2022-07-29T00:17:25.409Z,99655.38
2022-07-29T00:17:57.374Z,99662.06
2022-07-29T00:18:29.289Z,99658.41
2022-07-29T00:19:02.614Z,99660.81
2022-07-29T00:19:35.263Z,99663.00
2022-07-29T00:20:07.997Z,99657.84
2022-07-29T00:20:39.919Z,99661.81
2022-07-29T00:21:11.843Z,99660.69
2022-07-29T00:21:43.812Z,99660.22
2022-07-29T00:22:16.198Z,99655.91
2022-07-29T00:22:48.400Z,99663.81
2022-07-29T00:23:20.341Z,99660.22
2022-07-29T00:23:52.345Z,99659.03
2022-07-29T00:24:24.211Z,99666.25
2022-07-29T00:24:56.134Z,99660.59
2022-07-29T00:25:28.253Z,99658.63
2022-07-29T00:26:00.150Z,99661.56
2022-07-29T00:26:33.554Z,99652.69
2022-07-29T00:27:05.501Z,99671.38
2022-07-29T00:27:37.961Z,99663.56
2022-07-29T00:28:09.941Z,99662.78
2022-07-29T00:28:41.887Z,99667.19
2022-07-29T00:30:06.948Z,99664.59
2022-07-29T00:30:38.992Z,99665.94
2022-07-29T00:31:10.943Z,99658.84
2022-07-29T00:31:42.977Z,99665.94
2022-07-29T00:32:15.039Z,99666.03
2022-07-29T00:32:47.945Z,99662.66
2022-07-29T00:33:20.144Z,99658.87
2022-07-29T00:33:52.053Z,99664.75
2022-07-29T00:34:42.677Z,99659.63
2022-07-29T00:35:33.653Z,99663.19
2022-07-29T00:36:05.707Z,99662.41
2022-07-29T00:36:37.595Z,99664.75
2022-07-29T00:37:09.491Z,99664.97
2022-07-29T00:37:41.423Z,99663.88
2022-07-29T00:38:15.095Z,99661.03
2022-07-29T00:38:47.110Z,99668.72
2022-07-29T00:39:19.117Z,99660.03
2022-07-29T00:39:51.611Z,99663.59
2022-07-29T00:40:23.812Z,99670.81
2022-07-29T00:40:55.747Z,99666.37
2022-07-29T00:41:27.653Z,99671.50
2022-07-29T00:41:59.652Z,99661.66
2022-07-29T00:42:31.572Z,99671.31
2022-07-29T00:43:03.679Z,99658.69
2022-07-29T00:43:35.952Z,99660.16
2022-07-29T00:44:07.855Z,99663.81
2022-07-29T00:44:42.618Z,99662.22
2022-07-29T00:45:15.248Z,99669.59
2022-07-29T00:45:47.274Z,99663.19
2022-07-29T00:46:19.270Z,99666.75
2022-07-29T00:46:51.289Z,99662.19
2022-07-29T00:47:23.297Z,99658.63
2022-07-29T00:47:55.292Z,99667.94
2022-07-29T00:48:27.185Z,99663.91
2022-07-29T00:48:59.469Z,99655.47
2022-07-29T00:49:31.502Z,99666.16
2022-07-29T00:50:05.808Z,99661.59
2022-07-29T00:50:38.976Z,99662.81
2022-07-29T00:51:12.159Z,99658.09
2022-07-29T00:51:44.128Z,99661.03
2022-07-29T00:52:17.086Z,99659.63
2022-07-29T00:52:49.630Z,99660.03
2022-07-29T00:53:22.482Z,99655.47
2022-07-29T00:53:55.052Z,99661.81
2022-07-29T00:54:27.955Z,99661.12
2022-07-29T00:55:01.726Z,99662.44
2022-07-29T00:55:36.485Z,99658.28
2022-07-29T00:56:08.463Z,99661.44
2022-07-29T00:56:40.371Z,99664.03
2022-07-29T00:57:13.012Z,99660.06
2022-07-29T00:57:46.353Z,99655.41
2022-07-29T00:58:18.315Z,99661.12
2022-07-29T00:58:52.559Z,99659.03
2022-07-29T00:59:24.654Z,99664.88
2022-07-29T01:00:10.812Z,99666.16
2022-07-29T01:00:42.950Z,99659.84
2022-07-29T01:01:17.459Z,99661.03
2022-07-29T01:01:49.542Z,99655.72
2022-07-29T01:02:21.608Z,99663.81
2022-07-29T01:02:53.878Z,99664.28
2022-07-29T01:03:25.899Z,99662.59
2022-07-29T01:03:57.891Z,99670.00
2022-07-29T01:04:30.841Z,99658.25
2022-07-29T01:05:04.916Z,99660.13
2022-07-29T01:05:50.811Z,99667.44
2022-07-29T01:06:25.082Z,99655.41
2022-07-29T01:06:57.093Z,99661.91
2022-07-29T01:07:31.035Z,99661.72
2022-07-29T01:08:03.873Z,99662.69
2022-07-29T01:08:36.962Z,99658.03
2022-07-29T01:09:10.594Z,99663.19
2022-07-29T01:09:46.832Z,99662.41
2022-07-29T01:10:22.198Z,99654.66
2022-07-29T01:10:55.882Z,99658.00
2022-07-29T01:11:28.529Z,99660.06
2022-07-29T01:12:03.519Z,99658.63
2022-07-29T01:12:37.894Z,99659.06
2022-07-29T01:13:10.733Z,99657.34
2022-07-29T01:13:44.500Z,99662.59
2022-07-29T01:14:17.517Z,99654.31
2022-07-29T01:14:51.312Z,99654.31
2022-07-29T01:15:23.507Z,99657.66
2022-07-29T01:16:00.233Z,99656.25
2022-07-29T01:16:35.474Z,99648.97
2022-07-29T01:17:33.287Z,99663.09
2022-07-29T01:18:13.066Z,99657.25
2022-07-29T01:18:55.010Z,99657.06
2022-07-29T01:19:59.891Z,99647.41
2022-07-29T01:20:46.734Z,99659.03
2022-07-29T01:21:39.993Z,99657.84
2022-07-29T01:22:29.956Z,99645.97
2022-07-29T01:23:07.822Z,99648.19
2022-07-29T01:24:10.753Z,99657.75
2022-07-29T01:24:51.636Z,99655.25
2022-07-29T01:25:50.789Z,99650.28
2022-07-29T01:26:38.518Z,99653.28
2022-07-29T01:27:36.470Z,99648.19
2022-07-29T01:28:46.399Z,99657.37
2022-07-29T01:29:53.976Z,99656.47
2022-07-29T01:30:28.198Z,99652.53
2022-07-29T01:31:03.615Z,99652.69
2022-07-29T01:31:59.031Z,99647.06
2022-07-29T01:32:36.551Z,99646.97
2022-07-29T01:33:32.484Z,99653.84
2022-07-29T01:34:09.052Z,99653.31
2022-07-29T01:34:49.796Z,99645.69
2022-07-29T01:35:26.184Z,99649.63
2022-07-29T01:35:59.990Z,99650.59
2022-07-29T01:36:55.366Z,99649.69
2022-07-29T01:37:46.343Z,99647.34
2022-07-29T01:38:23.265Z,99653.28
2022-07-29T01:39:19.561Z,99644.19
2022-07-29T01:39:56.104Z,99651.31
2022-07-29T01:40:41.159Z,99650.59
2022-07-29T01:41:17.412Z,99646.72
2022-07-29T01:42:03.380Z,99647.34
2022-07-29T01:42:39.175Z,99650.50
2022-07-29T01:43:14.527Z,99645.72
2022-07-29T01:44:25.124Z,99642.78
2022-07-29T01:45:02.979Z,99647.69
2022-07-29T01:46:01.430Z,99648.00
2022-07-29T01:46:36.874Z,99652.66
2022-07-29T01:47:15.132Z,99651.88
2022-07-29T01:47:52.986Z,99647.94
2022-07-29T01:48:28.087Z,99650.37
2022-07-29T01:49:23.108Z,99653.22
2022-07-29T01:49:59.400Z,99650.53
2022-07-29T01:50:36.128Z,99649.00
2022-07-29T01:51:18.795Z,99651.75
2022-07-29T01:51:54.512Z,99653.62
2022-07-29T01:52:34.919Z,99650.66
2022-07-29T01:53:10.411Z,99652.06
2022-07-29T01:54:09.839Z,99645.72
2022-07-29T01:54:47.096Z,99647.94
2022-07-29T01:55:23.608Z,99651.56
2022-07-29T01:55:59.101Z,99649.38
2022-07-29T01:56:34.774Z,99653.03
2022-07-29T01:57:09.434Z,99653.22
2022-07-29T01:57:45.155Z,99659.34
2022-07-29T01:58:20.239Z,99652.59
2022-07-29T01:58:54.500Z,99663.28
2022-07-29T01:59:27.255Z,99653.38
2022-07-29T02:00:01.871Z,99656.25
2022-07-29T02:00:46.227Z,99666.25
2022-07-29T02:01:20.755Z,99653.22
2022-07-29T02:01:55.479Z,99660.56
2022-07-29T02:02:29.000Z,99661.50
2022-07-29T02:03:06.585Z,99658.72
2022-07-29T02:03:40.104Z,99657.53
2022-07-29T02:04:29.274Z,99653.75
2022-07-29T02:05:04.461Z,99656.41
2022-07-29T02:05:38.808Z,99651.31
2022-07-29T02:06:12.592Z,99654.00
2022-07-29T02:06:46.788Z,99654.00
2022-07-29T02:07:22.185Z,99651.81
2022-07-29T02:07:56.755Z,99650.41
2022-07-29T02:08:30.235Z,99653.88
2022-07-29T02:09:03.697Z,99648.66
2022-07-29T02:09:38.818Z,99652.91
2022-07-29T02:10:13.352Z,99657.09
2022-07-29T02:10:46.819Z,99656.91
2022-07-29T02:11:19.193Z,99656.78
2022-07-29T02:11:54.433Z,99654.19
2022-07-29T02:12:28.909Z,99655.44
2022-07-29T02:13:02.260Z,99657.03
2022-07-29T02:13:36.897Z,99658.63
2022-07-29T02:14:13.423Z,99658.97
2022-07-29T02:14:49.236Z,99657.41
2022-07-29T02:15:22.584Z,99658.13
2022-07-29T02:15:56.359Z,99658.41
2022-07-29T02:16:31.876Z,99659.19
2022-07-29T02:17:05.095Z,99657.50
2022-07-29T02:17:44.851Z,99655.94
2022-07-29T02:18:19.601Z,99659.06
2022-07-29T02:18:54.796Z,99655.81
2022-07-29T02:19:28.514Z,99660.69
2022-07-29T02:20:03.502Z,99658.63
2022-07-29T02:20:37.204Z,99656.19
2022-07-29T02:21:15.080Z,99656.47
2022-07-29T02:21:48.711Z,99656.47
2022-07-29T02:22:22.082Z,99657.06
2022-07-29T02:22:55.784Z,99655.06
2022-07-29T02:23:28.494Z,99653.06
2022-07-29T02:24:02.133Z,99654.06
2022-07-29T02:24:36.608Z,99650.91
2022-07-29T02:25:14.167Z,99649.91
2022-07-29T02:25:50.136Z,99651.81
2022-07-29T02:26:25.522Z,99648.19
2022-07-29T02:27:01.226Z,99651.91
2022-07-29T02:27:35.591Z,99653.31
2022-07-29T02:28:08.804Z,99643.41
2022-07-29T02:28:42.028Z,99646.97
2022-07-29T02:29:16.368Z,99646.69
2022-07-29T02:29:50.155Z,99649.47
2022-07-29T02:30:24.194Z,99650.97
2022-07-29T02:31:03.259Z,99645.84
2022-07-29T02:31:37.701Z,99648.69
2022-07-29T02:32:14.338Z,99647.03
2022-07-29T02:32:49.353Z,99643.69
2022-07-29T02:33:22.624Z,99645.75
2022-07-29T02:33:55.809Z,99648.34
2022-07-29T02:34:29.383Z,99644.38
2022-07-29T02:35:02.637Z,99641.22
2022-07-29T02:35:35.116Z,99648.34
2022-07-29T02:36:08.241Z,99654.66
2022-07-29T02:36:41.542Z,99647.44
2022-07-29T02:37:14.496Z,99649.00
2022-07-29T02:38:07.742Z,99645.28
2022-07-29T02:38:51.334Z,99647.62
2022-07-29T02:39:25.431Z,99644.66
2022-07-29T02:39:59.641Z,99645.47
2022-07-29T02:40:31.600Z,99649.63
2022-07-29T02:41:09.028Z,99654.06
2022-07-29T02:41:48.810Z,99654.34
2022-07-29T02:42:23.788Z,99653.00
2022-07-29T02:42:56.349Z,99652.09
2022-07-29T02:43:31.065Z,99651.59
2022-07-29T02:44:07.280Z,99650.53
2022-07-29T02:44:39.256Z,99653.09
2022-07-29T02:45:11.809Z,99650.44
2022-07-29T02:45:44.436Z,99653.69
2022-07-29T02:46:28.333Z,99655.88
2022-07-29T02:47:20.294Z,99652.09
2022-07-29T02:47:54.260Z,99658.22
2022-07-29T02:48:37.512Z,99656.16
2022-07-29T02:49:43.427Z,99656.94
2022-07-29T02:50:38.638Z,99651.97
2022-07-29T02:51:43.538Z,99651.66
2022-07-29T02:52:25.608Z,99658.37
2022-07-29T02:53:06.580Z,99654.44
2022-07-29T02:53:41.022Z,99652.84
2022-07-29T02:54:31.982Z,99657.59
2022-07-29T02:55:16.610Z,99658.37
2022-07-29T02:55:51.524Z,99655.66
2022-07-29T02:56:28.709Z,99654.56
2022-07-29T02:57:06.869Z,99658.03
2022-07-29T02:57:54.086Z,99659.59
2022-07-29T02:58:33.093Z,99656.66
2022-07-29T02:59:10.620Z,99660.69
2022-07-29T02:59:46.302Z,99665.25
2022-07-29T03:00:18.802Z,99657.31
2022-07-29T03:00:52.715Z,99658.69
2022-07-29T03:01:26.697Z,99663.34
2022-07-29T03:02:01.367Z,99665.44
2022-07-29T03:02:43.228Z,99659.47
2022-07-29T03:03:19.121Z,99657.69
2022-07-29T03:03:54.900Z,99653.31
2022-07-29T03:04:29.548Z,99658.56
2022-07-29T03:05:03.456Z,99655.50
2022-07-29T03:05:36.209Z,99652.25
2022-07-29T03:06:09.618Z,99656.59
2022-07-29T03:07:02.278Z,99654.88
2022-07-29T03:07:36.177Z,99654.88
2022-07-29T03:08:10.672Z,99660.22
2022-07-29T03:08:44.552Z,99653.66
2022-07-29T03:09:17.007Z,99649.31
2022-07-29T03:09:50.981Z,99655.94
2022-07-29T03:10:24.293Z,99656.88
2022-07-29T03:10:56.758Z,99656.00
2022-07-29T03:11:45.874Z,99653.25
2022-07-29T03:12:23.186Z,99655.69
2022-07-29T03:12:56.955Z,99650.66
2022-07-29T03:13:30.527Z,99656.97
2022-07-29T03:14:02.879Z,99650.16
2022-07-29T03:14:36.113Z,99653.84
2022-07-29T03:15:09.424Z,99651.66
2022-07-29T03:15:44.692Z,99643.00
2022-07-29T03:16:19.557Z,99652.56
2022-07-29T03:16:52.292Z,99654.06
2022-07-29T03:17:24.664Z,99654.81
2022-07-29T03:17:57.683Z,99644.34
2022-07-29T03:18:31.384Z,99651.25
2022-07-29T03:19:04.858Z,99643.81
2022-07-29T03:19:37.025Z,99646.72
2022-07-29T03:20:10.521Z,99646.62
2022-07-29T03:20:43.273Z,99645.53
2022-07-29T03:21:15.232Z,99647.84
2022-07-29T03:21:47.393Z,99647.06
2022-07-29T03:22:19.891Z,99647.06
2022-07-29T03:22:52.054Z,99649.50
2022-07-29T03:23:25.114Z,99656.09
2022-07-29T03:23:57.098Z,99650.00
2022-07-29T03:24:36.594Z,99652.06
2022-07-29T03:25:09.741Z,99643.22
2022-07-29T03:25:41.960Z,99650.00
2022-07-29T03:26:14.384Z,99649.75
2022-07-29T03:26:46.414Z,99650.84
2022-07-29T03:27:18.472Z,99659.00
2022-07-29T03:27:51.238Z,99644.59
2022-07-29T03:28:24.054Z,99654.53
2022-07-29T03:28:58.959Z,99649.66
2022-07-29T03:29:33.601Z,99653.31
2022-07-29T03:30:08.910Z,99650.78
2022-07-29T03:30:41.349Z,99646.16
2022-07-29T03:31:16.530Z,99650.25
2022-07-29T03:31:48.554Z,99642.44
2022-07-29T03:32:23.874Z,99650.25
2022-07-29T03:32:58.772Z,99652.50
2022-07-29T03:33:31.403Z,99642.44
2022-07-29T03:34:03.871Z,99649.22
2022-07-29T03:34:37.677Z,99652.41
2022-07-29T03:35:10.030Z,99644.59
2022-07-29T03:35:42.582Z,99644.09
2022-07-29T03:36:14.558Z,99655.22
2022-07-29T03:36:46.613Z,99646.97
2022-07-29T03:37:18.547Z,99644.09
2022-07-29T03:37:50.590Z,99643.97
2022-07-29T03:38:26.164Z,99654.19
2022-07-29T03:38:59.117Z,99654.38
2022-07-29T03:39:35.379Z,99652.22
2022-07-29T03:40:10.231Z,99644.75
2022-07-29T03:40:47.705Z,99648.09
2022-07-29T03:41:22.513Z,99649.94
2022-07-29T03:41:57.303Z,99654.12
2022-07-29T03:42:34.813Z,99655.59
2022-07-29T03:43:08.199Z,99654.22
2022-07-29T03:43:49.807Z,99661.16
2022-07-29T03:44:23.102Z,99664.16
2022-07-29T03:44:58.068Z,99658.75
2022-07-29T03:45:32.829Z,99651.66
2022-07-29T03:46:08.895Z,99661.91
2022-07-29T03:46:44.380Z,99660.66
2022-07-29T03:47:20.007Z,99661.47
2022-07-29T03:48:01.192Z,99655.56
2022-07-29T03:48:36.689Z,99656.63
2022-07-29T03:49:11.425Z,99661.22
2022-07-29T03:49:45.555Z,99655.09
2022-07-29T03:50:20.365Z,99660.22
2022-07-29T03:50:52.928Z,99663.69
2022-07-29T03:51:33.505Z,99657.75
2022-07-29T03:52:07.166Z,99670.06
2022-07-29T03:52:39.363Z,99665.25
2022-07-29T03:53:11.784Z,99661.75
2022-07-29T03:53:43.869Z,99669.66
2022-07-29T03:54:16.198Z,99665.03
2022-07-29T03:54:48.753Z,99662.31
2022-07-29T03:55:21.142Z,99661.22
2022-07-29T03:55:59.296Z,99670.75
2022-07-29T03:56:35.630Z,99669.66
2022-07-29T03:57:10.621Z,99671.81
2022-07-29T03:57:43.687Z,99668.38
2022-07-29T03:58:17.356Z,99662.38
2022-07-29T03:58:52.673Z,99671.97
2022-07-29T03:59:25.135Z,99663.59
2022-07-29T03:59:57.728Z,99663.31
2022-07-29T04:00:30.698Z,99667.63
2022-07-29T04:01:03.495Z,99668.19
2022-07-29T04:01:36.712Z,99667.41
2022-07-29T04:02:12.060Z,99669.81
2022-07-29T04:02:49.786Z,99666.56
2022-07-29T04:03:22.627Z,99663.53
2022-07-29T04:03:54.867Z,99670.50
2022-07-29T04:04:27.373Z,99672.31
2022-07-29T04:05:00.921Z,99670.88
2022-07-29T04:05:32.825Z,99673.44
2022-07-29T04:06:07.715Z,99674.53
2022-07-29T04:06:41.686Z,99671.88
2022-07-29T04:07:14.836Z,99667.25
2022-07-29T04:07:48.255Z,99672.28
2022-07-29T04:08:20.206Z,99671.22
2022-07-29T04:08:52.221Z,99674.06
2022-07-29T04:09:24.529Z,99670.84
2022-07-29T04:09:56.537Z,99663.72
2022-07-29T04:10:31.567Z,99670.12
2022-07-29T04:11:05.639Z,99667.44
2022-07-29T04:12:01.601Z,99672.22
2022-07-29T04:12:34.039Z,99678.00
2022-07-29T04:13:05.973Z,99669.47
2022-07-29T04:13:37.909Z,99673.28
2022-07-29T04:14:09.870Z,99674.16
2022-07-29T04:14:41.754Z,99666.88
2022-07-29T04:15:13.679Z,99668.38
2022-07-29T04:15:45.615Z,99673.41
2022-07-29T04:16:17.896Z,99660.31
2022-07-29T04:16:49.901Z,99670.88
2022-07-29T04:17:22.125Z,99662.59
2022-07-29T04:17:54.051Z,99667.69
2022-07-29T04:18:26.320Z,99669.47
2022-07-29T04:18:58.298Z,99678.81
2022-07-29T04:19:31.123Z,99674.19
2022-07-29T04:20:03.606Z,99676.16
2022-07-29T04:20:35.587Z,99668.03
2022-07-29T04:21:07.490Z,99669.31
2022-07-29T04:21:42.797Z,99672.69
2022-07-29T04:22:14.695Z,99668.56
2022-07-29T04:22:46.612Z,99670.34
2022-07-29T04:23:18.563Z,99666.31
2022-07-29T04:23:53.847Z,99667.13
2022-07-29T04:24:26.191Z,99672.38
2022-07-29T04:25:01.770Z,99671.19
2022-07-29T04:25:39.644Z,99670.09
2022-07-29T04:26:11.929Z,99671.97
2022-07-29T04:26:44.205Z,99667.75
2022-07-29T04:27:16.118Z,99669.03
2022-07-29T04:28:03.672Z,99666.37
2022-07-29T04:28:35.577Z,99668.69
2022-07-29T04:29:07.511Z,99671.41
2022-07-29T04:29:56.360Z,99671.31
2022-07-29T04:30:30.694Z,99662.38
2022-07-29T04:31:02.911Z,99672.94
2022-07-29T04:31:35.067Z,99666.66
2022-07-29T04:32:07.432Z,99666.28
2022-07-29T04:32:39.428Z,99666.28
2022-07-29T04:33:11.717Z,99667.34
2022-07-29T04:33:43.676Z,99671.09
2022-07-29T04:34:15.865Z,99668.94
2022-07-29T04:34:48.901Z,99663.50
2022-07-29T04:35:21.924Z,99665.41
2022-07-29T04:35:55.101Z,99669.53
2022-07-29T04:36:29.293Z,99662.50
2022-07-29T04:37:02.035Z,99661.91
2022-07-29T04:37:34.324Z,99659.25
2022-07-29T04:38:07.113Z,99659.75
2022-07-29T04:38:39.624Z,99660.25
2022-07-29T04:39:11.554Z,99652.97
2022-07-29T04:39:43.478Z,99657.16
2022-07-29T04:40:15.397Z,99658.72
2022-07-29T04:40:47.335Z,99656.66
2022-07-29T04:41:21.748Z,99655.88
2022-07-29T04:41:54.933Z,99655.16
2022-07-29T04:42:29.442Z,99665.53
2022-07-29T04:43:03.219Z,99660.09
2022-07-29T04:43:37.874Z,99660.69
2022-07-29T04:44:09.789Z,99664.72
2022-07-29T04:44:43.139Z,99665.53
2022-07-29T04:45:16.123Z,99664.72
2022-07-29T04:45:48.145Z,99670.03
2022-07-29T04:46:20.285Z,99672.34
2022-07-29T04:46:52.276Z,99665.94
2022-07-29T04:47:24.252Z,99671.25
2022-07-29T04:47:56.899Z,99669.59
2022-07-29T04:48:29.302Z,99668.78
2022-07-29T04:49:01.580Z,99674.91
2022-07-29T04:49:33.541Z,99671.66
2022-07-29T04:50:06.943Z,99673.53
2022-07-29T04:50:39.928Z,99668.00
2022-07-29T04:51:11.824Z,99672.34
2022-07-29T04:51:43.790Z,99671.44
2022-07-29T04:52:15.748Z,99671.84
2022-07-29T04:52:47.710Z,99673.72
2022-07-29T04:53:19.743Z,99676.09
2022-07-29T04:53:51.969Z,99675.09
2022-07-29T04:54:23.936Z,99668.41
2022-07-29T04:54:57.655Z,99669.41
2022-07-29T04:55:29.547Z,99670.06
2022-07-29T04:56:01.500Z,99676.69
2022-07-29T04:56:33.451Z,99676.88
2022-07-29T04:57:05.353Z,99674.53
2022-07-29T04:57:37.330Z,99675.69
2022-07-29T04:58:09.382Z,99678.84
2022-07-29T04:58:41.274Z,99668.28
2022-07-29T04:59:13.485Z,99678.66
2022-07-29T04:59:45.397Z,99670.88
2022-07-29T05:00:17.516Z,99674.81
2022-07-29T05:00:49.896Z,99670.75
2022-07-29T05:01:21.943Z,99668.00
2022-07-29T05:01:53.993Z,99667.38
2022-07-29T05:02:25.973Z,99675.09
2022-07-29T05:02:58.001Z,99669.97
2022-07-29T05:03:30.025Z,99675.03
2022-07-29T05:04:01.918Z,99675.03
2022-07-29T05:04:34.140Z,99670.66
2022-07-29T05:05:06.430Z,99677.09
2022-07-29T05:05:38.882Z,99676.00
2022-07-29T05:06:10.812Z,99673.72
2022-07-29T05:06:42.916Z,99675.88
2022-07-29T05:07:15.260Z,99685.38
2022-07-29T05:07:47.144Z,99677.28
2022-07-29T05:08:19.067Z,99677.84
2022-07-29T05:08:51.002Z,99680.41
2022-07-29T05:09:22.964Z,99677.66
2022-07-29T05:09:57.898Z,99673.28
2022-07-29T05:10:29.939Z,99682.47
2022-07-29T05:11:12.079Z,99683.78
2022-07-29T05:11:44.981Z,99682.19
2022-07-29T05:12:16.999Z,99681.78
2022-07-29T05:12:49.122Z,99678.66
2022-07-29T05:13:21.473Z,99676.28
2022-07-29T05:13:53.370Z,99674.09
2022-07-29T05:14:25.344Z,99674.47
2022-07-29T05:14:57.572Z,99679.22
2022-07-29T05:15:29.571Z,99676.44
2022-07-29T05:16:01.591Z,99686.38
2022-07-29T05:16:34.498Z,99684.38
2022-07-29T05:17:06.468Z,99683.09
2022-07-29T05:17:38.390Z,99674.97
2022-07-29T05:18:10.354Z,99678.63
2022-07-29T05:18:43.265Z,99682.88
2022-07-29T05:19:15.768Z,99683.22
2022-07-29T05:19:47.730Z,99685.78
2022-07-29T05:20:19.939Z,99680.66
2022-07-29T05:20:52.445Z,99677.78
2022-07-29T05:21:24.374Z,99677.19
2022-07-29T05:21:56.272Z,99676.75
2022-07-29T05:22:28.379Z,99682.88
2022-07-29T05:23:01.492Z,99687.50
2022-07-29T05:23:33.440Z,99682.03
2022-07-29T05:24:05.599Z,99681.25
2022-07-29T05:24:37.527Z,99685.75
2022-07-29T05:25:10.639Z,99682.53
2022-07-29T05:25:44.652Z,99688.22
2022-07-29T05:26:16.992Z,99683.25
2022-07-29T05:26:48.938Z,99692.72
2022-07-29T05:27:20.952Z,99678.63
2022-07-29T05:27:53.412Z,99683.34
2022-07-29T05:28:25.370Z,99685.72
2022-07-29T05:28:58.055Z,99687.00
2022-07-29T05:29:42.794Z,99682.13
2022-07-29T05:30:17.171Z,99686.06
2022-07-29T05:30:50.522Z,99683.81
2022-07-29T05:31:22.950Z,99680.63
2022-07-29T05:31:54.962Z,99683.44
2022-07-29T05:32:26.862Z,99685.38
2022-07-29T05:32:58.780Z,99682.56
2022-07-29T05:33:34.646Z,99682.00
2022-07-29T05:34:08.733Z,99682.91
2022-07-29T05:34:50.712Z,99685.47
2022-07-29T05:35:23.592Z,99679.50
2022-07-29T05:36:00.333Z,99675.75
2022-07-29T05:36:32.943Z,99675.75
2022-07-29T05:37:04.901Z,99673.87
2022-07-29T05:37:36.826Z,99677.31
2022-07-29T05:38:08.907Z,99677.09
2022-07-29T05:38:40.805Z,99685.19
2022-07-29T05:39:13.942Z,99677.31
2022-07-29T05:39:48.862Z,99679.25
2022-07-29T05:40:22.889Z,99675.34
2022-07-29T05:40:58.210Z,99675.69
2022-07-29T05:41:33.257Z,99686.25
2022-07-29T05:42:09.472Z,99678.22
2022-07-29T05:42:41.471Z,99674.78
2022-07-29T05:43:13.394Z,99678.09
2022-07-29T05:43:45.576Z,99677.47
2022-07-29T05:44:17.936Z,99672.75
2022-07-29T05:44:49.951Z,99676.97
2022-07-29T05:45:21.917Z,99679.78
2022-07-29T05:45:53.860Z,99673.03
2022-07-29T05:46:26.168Z,99683.72
2022-07-29T05:46:58.082Z,99677.91
2022-07-29T05:47:30.088Z,99678.88
2022-07-29T05:48:02.025Z,99674.78
2022-07-29T05:48:33.898Z,99673.84
2022-07-29T05:49:07.454Z,99681.56
2022-07-29T05:49:39.584Z,99673.56
2022-07-29T05:50:11.562Z,99677.50
2022-07-29T05:50:44.225Z,99679.06
2022-07-29T05:51:19.629Z,99674.09
2022-07-29T05:51:51.908Z,99675.97
2022-07-29T05:52:24.302Z,99673.09
2022-07-29T05:52:56.280Z,99673.72
2022-07-29T05:53:28.409Z,99673.91
2022-07-29T05:54:00.392Z,99677.38
2022-07-29T05:54:32.346Z,99678.34
2022-07-29T05:55:06.555Z,99672.38
2022-07-29T05:55:39.854Z,99676.59
2022-07-29T05:56:12.344Z,99680.37
2022-07-29T05:56:44.315Z,99672.69
2022-07-29T05:57:25.324Z,99680.41
2022-07-29T05:57:57.090Z,99682.13
2022-07-29T05:58:29.196Z,99684.50
2022-07-29T05:59:01.098Z,99678.97
2022-07-29T05:59:37.491Z,99675.66
2022-07-29T06:00:10.306Z,99692.81
2022-07-29T06:00:44.513Z,99682.44
2022-07-29T06:01:17.937Z,99686.50
2022-07-29T06:01:49.935Z,99684.62
2022-07-29T06:02:21.900Z,99683.19
2022-07-29T06:02:54.101Z,99684.16
2022-07-29T06:03:26.627Z,99678.81
2022-07-29T06:03:58.820Z,99681.97
2022-07-29T06:04:30.841Z,99684.94
2022-07-29T06:05:02.892Z,99681.00
2022-07-29T06:05:34.828Z,99681.31
2022-07-29T06:06:07.275Z,99690.75
2022-07-29T06:06:39.681Z,99685.91
2022-07-29T06:07:12.363Z,99683.06
2022-07-29T06:07:49.997Z,99679.41
2022-07-29T06:08:23.154Z,99683.69
2022-07-29T06:08:55.122Z,99688.41
2022-07-29T06:09:27.097Z,99694.25
2022-07-29T06:09:59.049Z,99682.91
2022-07-29T06:10:31.018Z,99686.50
2022-07-29T06:11:04.671Z,99685.75
2022-07-29T06:11:36.629Z,99684.78
2022-07-29T06:12:09.908Z,99677.88
2022-07-29T06:12:41.832Z,99682.75
2022-07-29T06:13:14.049Z,99691.72
2022-07-29T06:13:45.958Z,99678.00
2022-07-29T06:14:18.163Z,99686.69
2022-07-29T06:14:54.193Z,99689.34
2022-07-29T06:15:26.329Z,99686.50
2022-07-29T06:15:58.401Z,99695.66
2022-07-29T06:16:31.380Z,99687.59
2022-07-29T06:17:03.352Z,99683.81
2022-07-29T06:17:35.722Z,99689.19
2022-07-29T06:18:10.210Z,99683.00
2022-07-29T06:18:42.998Z,99687.75
2022-07-29T06:19:14.908Z,99686.50
2022-07-29T06:19:47.230Z,99691.53
2022-07-29T06:20:19.422Z,99693.38
2022-07-29T06:20:59.249Z,99693.06
2022-07-29T06:21:31.165Z,99692.00
2022-07-29T06:22:03.207Z,99695.47
2022-07-29T06:22:35.430Z,99693.38
2022-07-29T06:23:07.411Z,99699.56
2022-07-29T06:23:40.015Z,99697.78
2022-07-29T06:24:13.879Z,99697.47
2022-07-29T06:24:46.026Z,99700.62
2022-07-29T06:25:17.979Z,99697.13
2022-07-29T06:25:50.510Z,99693.53
2022-07-29T06:26:30.238Z,99700.47
2022-07-29T06:27:03.598Z,99696.41
2022-07-29T06:27:35.822Z,99698.00
2022-07-29T06:28:08.103Z,99702.06
2022-07-29T06:28:40.039Z,99703.16
2022-07-29T06:29:12.375Z,99703.28
2022-07-29T06:29:44.328Z,99698.25
2022-07-29T06:30:16.239Z,99700.62
2022-07-29T06:30:48.226Z,99704.41
2022-07-29T06:31:20.389Z,99704.28
2022-07-29T06:31:52.339Z,99700.34
2022-07-29T06:32:27.384Z,99705.41
2022-07-29T06:33:01.298Z,99704.28
2022-07-29T06:33:33.236Z,99697.34
2022-07-29T06:34:05.571Z,99708.84
2022-07-29T06:34:37.720Z,99701.44
2022-07-29T06:35:37.688Z,99700.00
2022-07-29T06:36:05.351Z,99704.09
2022-07-29T06:36:39.797Z,99700.34
2022-07-29T06:37:15.582Z,99701.56
2022-07-29T06:37:47.919Z,99700.47
2022-07-29T06:38:31.439Z,99706.56
2022-07-29T06:39:09.871Z,99702.97
2022-07-29T06:39:43.775Z,99708.81
2022-07-29T06:40:34.485Z,99703.44
2022-07-29T06:41:13.480Z,99708.31
2022-07-29T06:41:51.552Z,99706.84
2022-07-29T06:42:23.465Z,99712.72
2022-07-29T06:42:55.385Z,99704.09
2022-07-29T06:43:32.378Z,99708.97
2022-07-29T06:44:05.692Z,99708.94
2022-07-29T06:44:37.668Z,99707.47
2022-07-29T06:45:10.948Z,99707.50
2022-07-29T06:45:43.912Z,99709.34
2022-07-29T06:46:18.492Z,99709.66
2022-07-29T06:46:52.564Z,99716.91
2022-07-29T06:47:24.449Z,99716.72
2022-07-29T06:47:56.413Z,99707.78
2022-07-29T06:48:29.927Z,99716.12
2022-07-29T06:49:03.295Z,99707.09
2022-07-29T06:49:35.329Z,99704.72
2022-07-29T06:50:07.806Z,99709.47